Latest Weather Observations for Esperance

IDW60801

Issued at 8:35 am WST Sunday 20 April 2014 (issued every 30 minutes, with the page automatically refreshed every 10 minutes)

About weather observations | Map of weather stations | Latest weather observations for WA | Other Formats
Station Details ID: 009789 Name: ESPERANCE Lat: -33.83 Lon: 121.89 Height: 25.0 m
Data from the previous 72 hours. | See also: Recent months at Esperance
Date/Time
WST
Temp
°C
App
Temp
°C
Dew
Point
Rel
Hum
%
Delta-T
°C
Wind Press
QNH
hPa
Press
MSL
hPa
Rain
since 9 am
mm
Dir
 
Spd
km/h
Gust
km/h
Spd
kts
Gust
kts
20/08:30am 18.4 17.5 14.8 79 2.1 ESE 13 19 7 10 1014.9 - 0.0
20/08:00am 18.4 18.3 15.0 80 2.0 ESE 9 15 5 8 1015.0 1015.0 0.0
20/07:30am 17.3 18.9 14.9 86 1.4 CALM 0 0 0 0 1015.2 - 0.0
20/07:00am 17.1 17.6 14.9 87 1.3 NNE 6 7 3 4 1015.0 1015.0 0.0
20/06:30am 17.8 16.5 14.7 82 1.8 ESE 15 20 8 11 1014.8 - 0.0
20/06:00am 17.5 17.1 15.1 86 1.4 SSE 11 20 6 11 1014.8 1014.8 0.0
20/05:30am 17.9 16.5 14.4 80 2.0 SE 15 22 8 12 1014.9 - 0.0
20/05:00am 18.0 16.5 14.3 79 2.1 SE 15 20 8 11 1014.8 1014.8 0.0
20/04:30am 17.9 17.2 14.4 80 2.0 SE 11 15 6 8 1014.9 - 0.0
20/04:00am 18.0 17.7 14.5 80 2.0 ESE 9 15 5 8 1014.8 1014.8 0.0
20/03:30am 17.9 17.6 14.4 80 2.0 ESE 9 13 5 7 1014.8 - 0.0
20/03:00am 17.7 16.9 14.0 79 2.1 ESE 11 15 6 8 1015.0 1015.0 0.0
20/02:30am 17.9 17.1 13.9 77 2.3 ESE 11 17 6 9 1015.2 - 0.0
20/02:00am 17.8 17.0 14.1 79 2.1 ESE 11 15 6 8 1015.5 1015.4 0.0
20/01:30am 17.8 16.5 13.8 77 2.3 ESE 13 19 7 10 1015.6 - 0.0
20/01:00am 17.8 16.9 13.6 76 2.4 ESE 11 17 6 9 1015.9 1015.8 0.0
20/12:30am 17.9 16.1 13.3 74 2.6 SE 15 20 8 11 1015.9 - 0.0
20/12:00am 17.7 15.6 13.5 76 2.4 ESE 17 22 9 12 1016.0 1015.9 0.0
 
Date/Time
WST
Temp
°C
App
Temp
°C
Dew
Point
Rel
Hum
%
Delta-T
°C
Wind Press
QNH
hPa
Press
MSL
hPa
Rain
since 9 am
mm
Dir
 
Spd
km/h
Gust
km/h
Spd
kts
Gust
kts
19/11:30pm 17.9 15.9 13.9 77 2.3 SE 17 24 9 13 1015.9 - 0.0
19/11:00pm 17.9 15.8 13.7 76 2.4 SE 17 22 9 12 1016.2 1016.1 0.0
19/10:30pm 18.1 15.9 13.3 73 2.7 SE 17 24 9 13 1016.6 - 0.0
19/10:00pm 18.1 15.4 13.5 74 2.6 SE 20 28 11 15 1017.0 1016.9 0.0
19/09:30pm 18.3 15.7 13.9 75 2.5 SE 20 32 11 17 1017.1 - 0.0
19/09:00pm 18.2 15.0 14.2 77 2.3 SSE 24 32 13 17 1016.9 1016.8 0.0
19/08:30pm 18.3 15.0 13.9 75 2.5 SSE 24 33 13 18 1016.9 - 0.0
19/08:00pm 18.1 14.5 14.3 78 2.2 SSE 26 32 14 17 1016.8 1016.7 0.0
19/07:30pm 18.2 15.2 14.9 81 1.9 SSE 24 33 13 18 1016.7 - 0.0
19/07:00pm 18.3 16.2 15.2 82 1.8 SSE 20 32 11 17 1016.6 1016.5 0.0
19/06:30pm 18.2 15.4 15.3 83 1.7 SSE 24 33 13 18 1016.3 - 0.0
19/06:18pm 18.4 16.0 15.3 82 1.8 SSE 22 33 12 18 1016.1 - 0.0
19/06:00pm 18.6 16.0 15.9 84 1.6 SSE 24 33 13 18 1015.9 1015.8 0.0
19/05:30pm 18.8 16.7 15.2 79 2.1 SSE 20 28 11 15 1015.8 - 0.0
19/05:00pm 19.0 16.9 15.3 79 2.2 SSE 20 32 11 17 1015.8 1015.7 0.0
19/04:30pm 19.3 16.7 15.0 76 2.5 SSE 22 30 12 16 1015.7 - 0.0
19/04:00pm 19.6 17.0 15.0 75 2.7 S 22 30 12 16 1015.7 1015.6 0.0
19/03:30pm 19.8 17.6 15.0 74 2.8 S 20 28 11 15 1015.6 - 0.0
19/03:00pm 20.1 17.9 15.0 72 3.0 S 20 28 11 15 1015.5 1015.4 0.0
19/02:30pm 20.4 18.3 14.8 70 3.3 S 19 30 10 16 1015.2 - 0.0
19/02:00pm 20.6 18.4 14.4 67 3.6 S 19 32 10 17 1015.1 1015.1 0.0
19/01:30pm 20.5 18.1 14.3 67 3.6 S 20 28 11 15 1015.1 - 0.0
19/01:00pm 20.9 18.8 14.6 67 3.7 S 19 24 10 13 1015.5 1015.4 0.0
19/12:30pm 21.4 19.4 13.8 62 4.4 S 17 22 9 12 1015.5 - 0.0
19/12:00pm 20.4 18.3 13.6 65 3.9 S 17 26 9 14 1016.0 1015.9 0.0
19/11:30am 20.6 18.4 13.2 62 4.2 S 17 24 9 13 1016.5 - 0.0
19/11:00am 20.6 19.1 13.2 62 4.2 WSW 13 20 7 11 1016.8 1016.7 0.0
19/10:30am 20.7 18.8 13.0 61 4.4 SSW 15 20 8 11 1016.9 - 0.0
19/10:00am 20.3 18.5 12.1 59 4.6 WSW 13 17 7 9 1016.9 1016.8 0.0
19/09:30am 19.6 18.6 12.2 62 4.1 WNW 9 13 5 7 1017.2 - 0.0
19/09:00am 17.5 16.9 12.4 72 2.8 N 7 11 4 6 1017.5 1017.4 0.0
19/08:30am 16.0 15.4 12.4 79 2.0 N 7 11 4 6 1017.8 - 0.0
19/08:00am 15.2 14.7 12.5 84 1.5 NNE 7 13 4 7 1017.8 1017.7 0.0
19/07:30am 13.8 13.3 12.5 92 0.7 ENE 7 13 4 7 1017.7 - 0.0
19/07:00am 13.7 12.7 12.4 92 0.7 E 9 13 5 7 1017.5 1017.4 0.0
19/06:30am 13.4 12.4 12.3 93 0.6 E 9 13 5 7 1017.5 - 0.0
19/06:00am 13.8 12.9 12.5 92 0.7 E 9 13 5 7 1017.3 1017.2 0.0
19/05:30am 14.0 12.7 12.5 91 0.8 E 11 15 6 8 1017.2 - 0.0
19/05:00am 14.5 13.2 12.5 88 1.1 E 11 15 6 8 1017.5 1017.4 0.0
19/04:30am 14.9 13.7 12.7 87 1.2 E 11 19 6 10 1017.8 - 0.0
19/04:00am 14.8 13.6 12.8 88 1.1 ESE 11 15 6 8 1017.8 1017.7 0.0
19/03:30am 14.9 13.6 12.5 85 1.3 E 11 17 6 9 1017.7 - 0.0
19/03:00am 15.1 13.8 12.5 84 1.4 E 11 19 6 10 1018.1 1018.0 0.0
19/02:30am 15.2 13.9 12.5 84 1.5 E 11 20 6 11 1018.3 - 0.0
19/02:00am 15.2 13.1 12.3 83 1.6 E 15 24 8 13 1018.2 1018.1 0.0
19/01:30am 15.1 13.3 12.2 83 1.6 E 13 20 7 11 1018.7 - 0.0
19/01:00am 15.2 13.5 12.3 83 1.6 E 13 17 7 9 1019.1 1019.0 0.0
19/12:30am 15.4 13.6 12.1 81 1.8 E 13 19 7 10 1019.4 - 0.0
19/12:00am 15.7 13.9 12.2 80 1.9 ENE 13 22 7 12 1019.6 1019.5 0.0
 
Date/Time
WST
Temp
°C
App
Temp
°C
Dew
Point
Rel
Hum
%
Delta-T
°C
Wind Press
QNH
hPa
Press
MSL
hPa
Rain
since 9 am
mm
Dir
 
Spd
km/h
Gust
km/h
Spd
kts
Gust
kts
18/11:30pm 15.8 13.2 12.1 78 2.0 ENE 17 26 9 14 1019.7 - 0.0
18/11:00pm 15.9 14.1 12.0 77 2.1 ENE 13 24 7 13 1020.0 1019.9 0.0
18/10:30pm 16.0 14.2 12.1 77 2.1 ENE 13 22 7 12 1020.2 - 0.0
18/10:00pm 15.8 14.2 11.5 75 2.3 E 11 19 6 10 1020.6 1020.5 0.0
18/09:30pm 15.8 14.1 11.3 74 2.4 E 11 17 6 9 1020.8 - 0.0
18/09:00pm 16.0 14.7 11.1 72 2.6 E 9 15 5 8 1021.2 1021.1 0.0
18/08:30pm 16.2 14.0 10.9 71 2.8 E 13 20 7 11 1021.2 - 0.0
18/08:00pm 16.5 14.0 11.1 70 2.9 E 15 20 8 11 1021.2 1021.1 0.0
18/07:30pm 16.9 14.4 11.1 68 3.1 E 15 22 8 12 1021.3 - 0.0
18/07:00pm 17.2 14.7 11.1 67 3.3 E 15 26 8 14 1021.1 1021.0 0.0
18/06:30pm 17.4 14.5 11.1 66 3.4 E 17 28 9 15 1021.0 - 0.0
18/06:00pm 17.5 14.0 11.0 65 3.5 ESE 20 32 11 17 1020.9 1020.8 0.0
18/05:30pm 17.8 14.0 11.1 65 3.6 E 22 35 12 19 1020.8 - 0.0
18/05:00pm 18.0 13.7 10.9 63 3.8 ESE 24 33 13 18 1020.6 1020.5 0.0
18/04:30pm 18.6 13.6 10.8 60 4.2 ESE 28 37 15 20 1020.6 - 0.0
18/04:00pm 19.2 14.1 10.7 58 4.6 ESE 28 37 15 20 1020.8 1020.7 0.0
18/03:30pm 19.3 14.6 10.6 57 4.7 SE 26 37 14 20 1020.8 - 0.0
18/03:00pm 19.3 13.8 10.4 56 4.8 SE 30 41 16 22 1021.0 1020.9 0.0
18/02:30pm 20.2 15.1 10.6 54 5.2 SE 28 41 15 22 1021.3 - 0.0
18/02:00pm 19.9 14.8 10.7 55 5.0 SE 28 37 15 20 1021.4 1021.3 0.0
18/01:30pm 20.0 14.8 11.7 59 4.6 SE 30 37 16 20 1021.8 - 0.0
18/01:00pm 20.3 16.4 12.2 59 4.5 SE 24 33 13 18 1022.3 1022.2 0.0
18/12:30pm 20.1 15.8 12.2 60 4.4 SE 26 32 14 17 1022.8 - 0.0
18/12:00pm 19.9 16.0 12.2 61 4.3 SE 24 28 13 15 1023.4 1023.3 0.0
18/11:30am 19.7 16.1 11.7 60 4.4 SE 22 30 12 16 1023.8 - 0.0
18/11:00am 20.6 18.5 9.7 49 5.8 E 11 19 6 10 1024.2 1024.1 0.0
18/10:30am 20.2 18.0 9.2 49 5.8 ENE 11 19 6 10 1024.6 - 0.0
18/10:00am 20.6 18.2 10.2 51 5.6 N 13 19 7 10 1024.9 1024.8 0.0
18/09:30am 19.5 16.4 10.4 55 4.9 N 17 22 9 12 1025.2 - 0.0
18/09:00am 19.3 16.1 11.4 60 4.3 NNE 19 26 10 14 1025.6 1025.5 0.0
18/08:30am 17.7 15.8 11.8 68 3.2 NNE 13 17 7 9 1025.8 - 0.0
18/08:00am 16.8 15.3 12.0 73 2.6 N 11 19 6 10 1025.8 1025.7 0.0
18/07:30am 15.4 14.0 12.3 82 1.7 N 11 15 6 8 1025.7 - 0.0
18/07:00am 15.1 14.0 12.1 82 1.6 N 9 13 5 7 1025.6 1025.5 0.0
18/06:30am 14.8 13.8 12.2 84 1.4 N 9 13 5 7 1025.3 - 0.0
18/06:00am 14.8 14.3 12.6 87 1.2 N 7 11 4 6 1025.2 1025.1 0.0
18/05:30am 14.8 13.8 12.4 85 1.3 N 9 11 5 6 1025.0 - 0.0
18/05:00am 15.0 14.4 12.4 84 1.4 N 7 9 4 5 1024.8 1024.7 0.0
18/04:30am 15.1 14.4 12.1 82 1.6 NE 7 9 4 5 1024.5 - 0.0
18/04:00am 15.1 14.5 12.3 83 1.5 NNE 7 9 4 5 1024.5 1024.4 0.0
18/03:30am 14.9 14.2 12.1 83 1.5 NNE 7 13 4 7 1024.4 - 0.0
18/03:00am 14.9 14.3 12.3 84 1.4 N 7 9 4 5 1024.4 1024.3 0.0
18/02:30am 15.0 14.1 12.6 85 1.3 N 9 11 5 6 1024.2 - 0.0
18/02:00am 15.3 14.9 13.1 87 1.2 N 7 9 4 5 1024.3 1024.2 0.0
18/01:30am 15.2 15.4 13.2 88 1.1 NNE 4 7 2 4 1024.5 - 0.0
18/01:04am 15.1 15.0 13.3 89 1.0 NNE 6 7 3 4 1024.5 - 0.0
18/01:00am 15.2 15.1 13.2 88 1.1 N 6 7 3 4 1024.4 1024.3 0.0
18/12:53am 15.2 15.1 13.2 88 1.1 N 6 11 3 6 1024.4 - 0.0
18/12:30am 15.7 15.4 13.2 85 1.4 E 7 13 4 7 1024.2 - 0.0
18/12:00am 17.2 15.5 12.3 73 2.7 SE 13 17 7 9 1024.0 1023.9 0.0
 
Date/Time
WST
Temp
°C
App
Temp
°C
Dew
Point
Rel
Hum
%
Delta-T
°C
Wind Press
QNH
hPa
Press
MSL
hPa
Rain
since 9 am
mm
Dir
 
Spd
km/h
Gust
km/h
Spd
kts
Gust
kts
17/11:30pm 17.4 15.3 12.5 73 2.7 SE 15 22 8 12 1024.0 - 0.0
17/11:00pm 17.6 15.2 13.7 78 2.2 SE 19 24 10 13 1023.9 1023.8 0.0
17/10:30pm 17.4 15.2 13.3 77 2.3 SE 17 24 9 13 1024.0 - 0.0
17/10:00pm 17.8 15.4 13.9 78 2.2 SE 19 24 10 13 1024.0 1023.9 0.0
17/09:30pm 17.6 15.0 13.3 76 2.4 SE 19 24 10 13 1024.0 - 0.0
17/09:00pm 17.7 15.3 13.8 78 2.2 SE 19 20 10 11 1024.1 1024.0 0.0
17/08:30pm 17.8 15.7 13.7 77 2.3 SE 17 20 9 11 1024.1 - 0.0
17/08:00pm 17.7 15.7 13.8 78 2.2 SSE 17 24 9 13 1023.9 1023.8 0.0
17/07:30pm 18.0 15.4 13.8 76 2.4 SSE 20 28 11 15 1023.6 - 0.0
17/07:00pm 18.4 16.9 13.1 71 3.0 S 13 20 7 11 1023.2 1023.1 0.0
17/06:30pm 18.4 18.4 14.2 76 2.4 SSW 7 11 4 6 1023.0 - 0.0
17/06:00pm 18.7 18.2 13.8 73 2.8 SSW 9 13 5 7 1022.8 1022.7 0.0
17/05:30pm 19.4 19.0 14.0 71 3.1 SW 9 15 5 8 1022.3 - 0.0
17/05:00pm 19.7 18.7 13.4 67 3.6 SW 11 17 6 9 1022.1 1022.0 0.0
17/04:30pm 20.1 18.3 12.2 60 4.4 S 13 22 7 12 1021.7 - 0.0
17/04:00pm 20.6 18.6 12.8 61 4.4 SSW 15 20 8 11 1021.4 1021.3 0.0
17/03:30pm 20.9 18.3 13.2 61 4.4 SSW 19 28 10 15 1021.3 - 0.0
17/03:00pm 21.4 19.0 12.5 57 5.0 SSW 17 30 9 16 1021.2 1021.1 0.0
17/02:30pm 21.1 17.5 11.7 55 5.2 SSW 22 33 12 18 1021.0 - 0.0
17/02:00pm 21.6 18.5 11.5 52 5.6 SW 19 33 10 18 1020.7 1020.6 0.0
17/01:30pm 22.0 19.2 11.4 51 5.9 W 17 28 9 15 1020.5 - 0.0
17/01:00pm 21.7 18.8 12.3 55 5.3 SW 19 28 10 15 1020.5 1020.4 0.0
17/12:30pm 21.7 19.0 12.9 57 5.0 WSW 19 32 10 17 1020.4 - 0.0
17/12:00pm 21.6 19.2 13.8 61 4.5 WSW 19 22 10 12 1020.5 1020.4 0.0
17/11:30am 21.8 20.1 13.7 60 4.7 W 15 22 8 12 1020.6 - 0.0
17/11:00am 21.1 19.3 13.2 60 4.5 SW 15 22 8 12 1020.7 1020.6 0.0
17/10:30am 20.6 18.8 13.4 63 4.1 SSW 15 20 8 11 1020.9 - 0.0
17/10:00am 20.7 19.1 12.9 61 4.4 SW 13 24 7 13 1020.6 1020.5 0.0
17/09:30am 19.8 19.6 13.5 67 3.6 WSW 7 11 4 6 1020.5 - 0.0
17/09:00am 17.9 17.2 13.1 73 2.7 W 9 13 5 7 1020.4 1020.3 0.0

Other Formats:

Comma delimited format used in spreadsheet applications
http://www.bom.gov.au/fwo/IDW60801/IDW60801.94638.axf

JavaScript Object Notation format (JSON) in row-major order
http://www.bom.gov.au/fwo/IDW60801/IDW60801.94638.json